Item Display Status Humidity-temperature Sensor

Elevation Above Sea Level: 3 m

 

Deployed Sensor

  • Serial Number: 20256988
  • NDBC Property Number: 42279
  • Start Date: 11/9/2018 (11:23:12 Z)
  • End Date: Currently Active
Relative Humidity [%]     6 entries per hour
Showing data from 11/12/2019 (07:00:00 Z) to 11/11/2019 (00:00:01 Z)
Previous Next [ Day | 3-Days | 7-Days ]
First Last
Prev [ Day | 3-Days | 7-Days ] Next
First Last

Start Time:     :
End Time:     :     
Time (in GMT) :00 :50 :40 :30 :20 :10
Previous Next [ Day | 3-Days | 7-Days ]
First Last
Prev [ Day | 3-Days | 7-Days ] Next
First Last


123 => good data
MM => data is determined as missing
-- => data not received/configured
Back to Top Back to Top
11/12/2019 07:00 to 6:10 89.96 90.44 89.67 89.73 91.07 90.44
11/12/2019 06:00 to 5:10 89.82 90.53 90.09 89.19 89.32 89.00
11/12/2019 05:00 to 4:10 82.37 80.47 80.39 79.70 79.39 78.99
11/12/2019 04:00 to 3:10 75.91 76.51 78.22 75.74 84.00 83.79
11/12/2019 03:00 to 2:10 82.89 82.64 81.98 81.18 80.35 79.14
11/12/2019 02:00 to 1:10 78.39 79.22 78.99 79.12 79.66 79.39
11/12/2019 01:00 to 0:10 78.97 78.95 78.22 76.95 75.80 76.47
11/12/2019 00:00 to 23:10 75.53 75.82 76.37 75.89 75.20 74.95
11/11/2019 23:00 to 22:10 77.33 77.68 75.66 75.91 75.93 76.74
11/11/2019 22:00 to 21:10 76.74 78.20 77.72 77.03 76.49 79.02
11/11/2019 21:00 to 20:10 82.81 82.52 82.71 82.64 82.54 82.69
11/11/2019 20:00 to 19:10 82.69 81.98 81.54 78.51 78.70 79.27
11/11/2019 19:00 to 18:10 80.39 80.10 77.26 76.58 75.60 75.93
11/11/2019 18:00 to 17:10 74.09 74.22 74.45 76.10 76.30 76.30
11/11/2019 17:00 to 16:10 77.41 77.01 77.18 77.89 78.89 78.16
11/11/2019 16:00 to 15:10 80.25 81.56 82.75 81.91 79.29 80.04
11/11/2019 15:00 to 14:10 81.83 84.04 85.38 81.83 81.91 80.27
11/11/2019 14:00 to 13:10 79.70 78.81 79.81 78.66 76.45 80.14
11/11/2019 13:00 to 12:10 81.73 83.31 83.52 84.12 84.52 83.62
11/11/2019 12:00 to 11:10 83.08 82.98 83.60 87.27 87.71 87.15
11/11/2019 11:00 to 10:10 86.04 85.96 86.02 84.54 84.23 82.94
11/11/2019 10:00 to 9:10 84.02 85.04 85.00 84.58 84.21 84.10
11/11/2019 09:00 to 8:10 84.54 84.65 85.35 84.62 85.10 85.69
11/11/2019 08:00 to 7:10 84.85 84.35 85.90 86.77 86.19 85.96
11/11/2019 07:00 to 6:10 86.25 85.63 85.33 84.96 86.54 86.17
11/11/2019 06:00 to 5:10 86.08 84.75 84.77 84.00 82.79 81.81
11/11/2019 05:00 to 4:10 82.21 82.73 82.18 82.85 82.25 82.46
11/11/2019 04:00 to 3:10 82.39 82.43 83.39 82.89 81.96 81.00
11/11/2019 03:00 to 2:10 81.75 80.70 80.37 80.31 79.52 78.35
11/11/2019 02:00 to 1:10 78.51 76.76 77.58 80.14 80.02 79.18
11/11/2019 01:00 to 0:10 78.68 78.91 81.37 78.31 80.68 78.66

 

 

 

Air Temperature [°C]     6 entries per hour
Showing data from 11/12/2019 (07:00:00 Z) to 11/11/2019 (00:00:01 Z)
Previous Next [ Day | 3-Days | 7-Days ]
First Last
Prev [ Day | 3-Days | 7-Days ] Next
First Last

Start Time:     :
End Time:     :     
Time (in GMT) :00 :50 :40 :30 :20 :10
Previous Next [ Day | 3-Days | 7-Days ]
First Last
Prev [ Day | 3-Days | 7-Days ] Next
First Last


123 => good data
MM => data is determined as missing
-- => data not received/configured
Back to Top Back to Top
11/12/2019 07:00 to 6:10 23.02 23.01 23.28 23.15 22.97 23.14
11/12/2019 06:00 to 5:10 23.12 23.01 23.05 23.12 23.28 23.29
11/12/2019 05:00 to 4:10 24.27 24.13 24.02 23.89 23.77 23.75
11/12/2019 04:00 to 3:10 23.76 24.09 24.29 24.00 24.12 24.10
11/12/2019 03:00 to 2:10 24.09 24.15 24.13 24.12 24.11 24.13
11/12/2019 02:00 to 1:10 24.07 24.05 24.15 24.09 24.14 24.15
11/12/2019 01:00 to 0:10 24.08 24.14 24.14 24.14 24.16 24.16
11/12/2019 00:00 to 23:10 24.23 24.20 24.29 24.21 24.23 24.28
11/11/2019 23:00 to 22:10 24.16 24.23 24.36 24.40 24.34 24.33
11/11/2019 22:00 to 21:10 24.18 24.36 24.37 24.35 24.21 24.11
11/11/2019 21:00 to 20:10 23.97 23.96 23.97 24.04 23.95 23.93
11/11/2019 20:00 to 19:10 23.78 23.99 24.03 24.25 24.18 24.09
11/11/2019 19:00 to 18:10 24.11 24.16 24.38 24.26 24.32 24.40
11/11/2019 18:00 to 17:10 24.36 24.47 24.27 24.15 24.30 24.30
11/11/2019 17:00 to 16:10 24.40 24.38 24.14 24.22 24.19 24.10
11/11/2019 16:00 to 15:10 24.18 23.98 23.90 24.00 23.98 23.90
11/11/2019 15:00 to 14:10 23.65 23.45 23.58 24.02 24.12 24.05
11/11/2019 14:00 to 13:10 24.08 24.06 24.13 24.10 24.23 23.92
11/11/2019 13:00 to 12:10 23.95 23.96 23.95 23.91 23.81 23.76
11/11/2019 12:00 to 11:10 23.80 23.78 23.64 23.57 23.59 23.56
11/11/2019 11:00 to 10:10 23.40 23.27 23.60 23.58 23.61 23.62
11/11/2019 10:00 to 9:10 23.60 23.60 23.54 23.49 23.69 23.61
11/11/2019 09:00 to 8:10 23.69 23.67 23.60 23.68 23.58 23.74
11/11/2019 08:00 to 7:10 23.84 23.77 23.84 23.85 23.97 24.08
11/11/2019 07:00 to 6:10 24.09 24.05 24.15 24.11 23.98 23.97
11/11/2019 06:00 to 5:10 24.02 24.00 23.99 24.02 24.00 24.01
11/11/2019 05:00 to 4:10 24.02 24.15 24.05 24.05 23.98 24.05
11/11/2019 04:00 to 3:10 24.06 24.01 23.98 24.06 24.14 24.17
11/11/2019 03:00 to 2:10 24.12 24.18 24.17 24.14 24.29 24.23
11/11/2019 02:00 to 1:10 24.23 24.32 24.25 24.15 24.11 24.17
11/11/2019 01:00 to 0:10 24.12 24.28 24.44 24.43 24.02 24.40